createdAt,value
2023-12-03T00:01:17.118Z,4.86
2023-12-03T00:06:40.063Z,4.86
2023-12-03T00:11:47.588Z,4.83
2023-12-03T00:16:54.447Z,4.83
2023-12-03T00:22:01.407Z,4.82
2023-12-03T00:27:08.707Z,4.83
2023-12-03T00:32:15.968Z,4.83
2023-12-03T00:37:22.952Z,4.83
2023-12-03T00:42:30.755Z,4.82
2023-12-03T00:54:32.238Z,4.97
2023-12-03T00:59:39.386Z,4.87
2023-12-03T01:04:46.776Z,4.83
2023-12-03T01:09:53.849Z,4.81
2023-12-03T01:15:00.890Z,4.80
2023-12-03T01:20:08.718Z,4.79
2023-12-03T01:25:15.991Z,4.79
2023-12-03T01:30:23.210Z,4.79
2023-12-03T01:35:30.617Z,4.79
2023-12-03T01:40:38.115Z,4.78
2023-12-03T01:45:47.241Z,4.77
2023-12-03T01:50:55.100Z,4.77
2023-12-03T01:56:02.473Z,4.78
2023-12-03T02:01:09.902Z,4.77
2023-12-03T02:06:16.883Z,4.76
2023-12-03T02:11:24.427Z,4.76
2023-12-03T02:16:32.129Z,4.77
2023-12-03T02:21:39.334Z,4.76
2023-12-03T02:26:46.385Z,4.75
2023-12-03T02:31:53.306Z,4.74
2023-12-03T02:37:00.253Z,4.74
2023-12-03T02:42:07.227Z,4.75
2023-12-03T02:47:14.292Z,4.75
2023-12-03T02:52:21.142Z,4.73
2023-12-03T02:57:28.205Z,4.73
2023-12-03T03:02:35.615Z,4.73
2023-12-03T03:07:42.780Z,4.73
2023-12-03T03:12:50.111Z,4.74
2023-12-03T03:17:57.458Z,4.72
2023-12-03T03:23:04.564Z,4.71
2023-12-03T03:28:11.577Z,4.71
2023-12-03T03:33:18.758Z,4.72
2023-12-03T03:38:25.787Z,4.72
2023-12-03T03:43:32.676Z,4.70
2023-12-03T03:48:39.968Z,4.71
2023-12-03T03:53:47.269Z,4.71
2023-12-03T03:58:54.029Z,4.69
2023-12-03T04:04:01.256Z,4.70
2023-12-03T04:09:08.558Z,4.69
2023-12-03T04:14:17.212Z,4.68
2023-12-03T04:19:24.233Z,4.71
2023-12-03T04:24:31.435Z,4.69
2023-12-03T04:29:38.502Z,4.69
2023-12-03T04:34:46.014Z,4.67
2023-12-03T04:39:52.987Z,4.68
2023-12-03T04:45:00.329Z,4.66
2023-12-03T04:50:08.370Z,4.67
2023-12-03T04:55:15.630Z,4.67
2023-12-03T05:00:23.320Z,4.66
2023-12-03T05:05:30.586Z,4.66
2023-12-03T05:10:37.726Z,4.66
2023-12-03T05:15:44.876Z,4.64
2023-12-03T05:20:51.939Z,4.65
2023-12-03T05:26:00.254Z,4.65
2023-12-03T05:31:08.846Z,4.65
2023-12-03T05:36:24.726Z,4.64
2023-12-03T05:41:32.089Z,4.64
2023-12-03T05:46:44.447Z,4.63
2023-12-03T05:51:51.934Z,4.64
2023-12-03T05:56:59.011Z,4.64
2023-12-03T06:02:06.315Z,4.63
2023-12-03T06:07:13.539Z,4.63
2023-12-03T06:12:20.739Z,4.62
2023-12-03T06:17:28.401Z,4.62
2023-12-03T06:22:35.379Z,4.61
2023-12-03T06:27:43.085Z,4.62
2023-12-03T06:32:50.394Z,4.62
2023-12-03T06:37:57.511Z,4.61
2023-12-03T06:43:04.638Z,4.61
2023-12-03T06:48:12.199Z,4.60
2023-12-03T06:53:19.363Z,4.60
2023-12-03T06:58:26.717Z,4.59
2023-12-03T07:03:34.163Z,4.60
2023-12-03T07:08:42.475Z,4.62
2023-12-03T07:13:49.555Z,4.60
2023-12-03T07:18:56.923Z,4.60
2023-12-03T07:24:03.896Z,4.61
2023-12-03T07:29:11.306Z,4.61
2023-12-03T07:34:18.536Z,4.61
2023-12-03T07:39:25.883Z,4.60
2023-12-03T07:44:33.547Z,4.60
2023-12-03T07:49:40.676Z,4.59
2023-12-03T07:54:47.641Z,4.60
2023-12-03T07:59:54.609Z,4.60
2023-12-03T08:05:01.803Z,4.59
2023-12-03T08:10:09.927Z,4.60
2023-12-03T08:15:17.026Z,4.61
2023-12-03T08:20:24.036Z,4.60
2023-12-03T08:25:31.310Z,4.63
2023-12-03T08:30:39.972Z,4.62
2023-12-03T08:35:47.198Z,4.63
2023-12-03T08:40:54.577Z,4.65
2023-12-03T08:46:02.121Z,4.66
2023-12-03T08:51:09.633Z,4.64
2023-12-03T08:56:16.950Z,4.67
2023-12-03T09:01:23.870Z,4.64
2023-12-03T09:06:30.807Z,4.65
2023-12-03T09:11:37.960Z,4.63
2023-12-03T09:16:44.801Z,4.64
2023-12-03T09:21:52.033Z,4.63
2023-12-03T09:26:59.266Z,4.64
2023-12-03T09:32:06.824Z,4.64
2023-12-03T09:37:14.550Z,4.62
2023-12-03T09:42:25.890Z,4.61
2023-12-03T09:47:36.728Z,4.63
2023-12-03T09:52:45.429Z,4.63
2023-12-03T09:57:56.361Z,4.63
2023-12-03T10:03:03.493Z,4.64
2023-12-03T10:08:10.925Z,4.62
2023-12-03T10:13:17.771Z,4.62
2023-12-03T10:18:24.869Z,4.63
2023-12-03T10:23:31.835Z,4.63
2023-12-03T10:28:39.462Z,4.65
2023-12-03T10:33:47.237Z,4.64
2023-12-03T10:38:54.488Z,4.62
2023-12-03T10:44:01.429Z,4.63
2023-12-03T10:49:08.925Z,4.64
2023-12-03T10:54:16.397Z,4.63
2023-12-03T10:59:24.150Z,4.62
2023-12-03T11:04:36.864Z,4.63
2023-12-03T11:09:49.640Z,4.63
2023-12-03T11:14:59.077Z,4.63
2023-12-03T11:20:08.466Z,4.62
2023-12-03T11:25:16.272Z,4.59
2023-12-03T11:30:38.548Z,4.60
2023-12-03T11:35:48.187Z,4.58
2023-12-03T11:40:55.386Z,4.58
2023-12-03T11:46:02.548Z,4.59
2023-12-03T11:51:11.318Z,4.58
2023-12-03T11:56:23.031Z,4.57
2023-12-03T12:01:31.905Z,4.58
2023-12-03T12:06:39.551Z,4.58
2023-12-03T12:11:46.884Z,4.59
2023-12-03T12:16:54.104Z,4.57
2023-12-03T12:22:01.220Z,4.57
2023-12-03T12:27:08.630Z,4.57
2023-12-03T12:32:15.762Z,4.56
2023-12-03T12:37:24.865Z,4.56
2023-12-03T12:42:48.681Z,4.57
2023-12-03T12:47:55.734Z,4.56
2023-12-03T12:53:03.869Z,4.57
2023-12-03T12:58:12.422Z,4.58
2023-12-03T13:03:20.243Z,4.58
2023-12-03T13:08:28.014Z,4.56
2023-12-03T13:13:35.288Z,4.55
2023-12-03T13:18:42.698Z,4.56
2023-12-03T13:23:49.751Z,4.57
2023-12-03T13:28:57.016Z,4.56
2023-12-03T13:34:04.384Z,4.55
2023-12-03T13:39:12.588Z,4.56
2023-12-03T13:44:21.587Z,4.53
2023-12-03T13:49:28.870Z,4.55
2023-12-03T13:54:36.046Z,4.54
2023-12-03T13:59:43.571Z,4.54
2023-12-03T14:04:50.980Z,4.52
2023-12-03T14:09:58.294Z,4.53
2023-12-03T14:15:05.564Z,4.53
2023-12-03T14:20:13.150Z,4.53
2023-12-03T14:25:20.503Z,4.52
2023-12-03T14:30:27.494Z,4.51
2023-12-03T14:35:34.494Z,4.51
2023-12-03T14:40:41.562Z,4.48
2023-12-03T14:45:48.700Z,4.49
2023-12-03T14:50:56.035Z,4.48
2023-12-03T14:56:02.920Z,4.47
2023-12-03T15:01:10.365Z,4.45
2023-12-03T15:06:17.987Z,4.45
2023-12-03T15:11:25.091Z,4.44
2023-12-03T15:16:34.637Z,4.44
2023-12-03T15:21:41.809Z,4.43
2023-12-03T15:26:48.789Z,4.43
2023-12-03T15:31:55.905Z,4.42
2023-12-03T15:37:03.012Z,4.42
2023-12-03T15:42:10.279Z,4.41
2023-12-03T15:47:17.307Z,4.40
2023-12-03T15:52:24.387Z,4.40
2023-12-03T15:57:31.735Z,4.39
2023-12-03T16:02:38.774Z,4.39
2023-12-03T16:07:47.140Z,4.39
2023-12-03T16:12:54.851Z,4.39
2023-12-03T16:18:01.991Z,4.38
2023-12-03T16:23:09.438Z,4.39
2023-12-03T16:28:16.940Z,4.38
2023-12-03T16:33:24.062Z,4.38
2023-12-03T16:38:31.969Z,4.38
2023-12-03T16:43:39.967Z,4.37
2023-12-03T16:48:46.896Z,4.38
2023-12-03T16:53:53.749Z,4.37
2023-12-03T16:59:00.778Z,4.37
2023-12-03T17:04:07.937Z,4.37
2023-12-03T17:09:14.874Z,4.36
2023-12-03T17:14:22.136Z,4.37
2023-12-03T17:19:30.137Z,4.36
2023-12-03T17:24:37.257Z,4.35
2023-12-03T17:29:44.576Z,4.35
2023-12-03T17:34:51.903Z,4.35
2023-12-03T17:39:59.207Z,4.36
2023-12-03T17:45:09.462Z,4.34
2023-12-03T17:50:17.231Z,4.34
2023-12-03T17:55:24.946Z,4.33
2023-12-03T18:00:34.349Z,4.34
2023-12-03T18:05:41.781Z,4.32
2023-12-03T18:10:49.783Z,4.34
2023-12-03T18:15:57.074Z,4.33
2023-12-03T18:21:04.403Z,4.31
2023-12-03T18:26:11.645Z,4.31
2023-12-03T18:31:21.267Z,4.30
2023-12-03T18:36:28.671Z,4.30
2023-12-03T18:41:35.996Z,4.30
2023-12-03T18:46:43.799Z,4.29
2023-12-03T18:51:51.309Z,4.28
2023-12-03T18:56:58.587Z,4.28
2023-12-03T19:02:06.077Z,4.26
2023-12-03T19:07:13.656Z,4.27
2023-12-03T19:12:20.818Z,4.26
2023-12-03T19:17:28.369Z,4.24
2023-12-03T19:22:35.577Z,4.25
2023-12-03T19:27:43.509Z,4.25
2023-12-03T19:32:50.871Z,4.24
2023-12-03T19:37:58.042Z,4.23
2023-12-03T19:43:05.116Z,4.23
2023-12-03T19:48:12.552Z,4.23
2023-12-03T19:53:20.443Z,4.22
2023-12-03T19:58:30.898Z,4.23
2023-12-03T20:03:39.464Z,4.22
2023-12-03T20:08:47.121Z,4.21
2023-12-03T20:13:54.192Z,4.21
2023-12-03T20:19:01.248Z,4.20
2023-12-03T20:24:08.962Z,4.20
2023-12-03T20:29:16.190Z,4.21
2023-12-03T20:34:23.309Z,4.21
2023-12-03T20:39:30.389Z,4.21
2023-12-03T20:44:39.184Z,4.19
2023-12-03T20:49:46.572Z,4.20
2023-12-03T20:54:53.945Z,4.19
2023-12-03T21:00:01.920Z,4.20
2023-12-03T21:05:09.659Z,4.20
2023-12-03T21:10:17.078Z,4.19
2023-12-03T21:15:24.319Z,4.18
2023-12-03T21:20:33.263Z,4.18
2023-12-03T21:25:40.444Z,4.17
2023-12-03T21:30:47.486Z,4.17
2023-12-03T21:35:56.745Z,4.16
2023-12-03T21:41:03.669Z,4.17
2023-12-03T21:46:11.157Z,4.18
2023-12-03T21:51:18.153Z,4.17
2023-12-03T21:56:25.144Z,4.15
2023-12-03T22:01:31.972Z,4.16
2023-12-03T22:06:40.190Z,4.17
2023-12-03T22:11:46.981Z,4.17
2023-12-03T22:16:54.124Z,4.15
2023-12-03T22:22:01.458Z,4.15
2023-12-03T22:27:08.609Z,4.16
2023-12-03T22:32:15.454Z,4.14
2023-12-03T22:37:22.307Z,4.14
2023-12-03T22:42:29.657Z,4.15
2023-12-03T22:47:37.490Z,4.14
2023-12-03T22:52:44.790Z,4.14
2023-12-03T22:57:52.354Z,4.13
2023-12-03T23:02:59.976Z,4.13
2023-12-03T23:08:07.323Z,4.13
2023-12-03T23:13:14.551Z,4.13
2023-12-03T23:18:21.545Z,4.12
2023-12-03T23:23:28.438Z,4.11
2023-12-03T23:28:35.424Z,4.11
2023-12-03T23:33:42.590Z,4.11
2023-12-03T23:38:49.438Z,4.10
2023-12-03T23:43:56.246Z,4.10
2023-12-03T23:49:03.168Z,4.10
2023-12-03T23:54:10.259Z,4.10
2023-12-03T23:59:17.004Z,4.09
